Nearby METAR Reports

 

KBJC - Broomfield/Jeffc, Colorado, USA
Distance from station: SSW 3mi, 5km
Updated: Mon, 24-Sep-2018 12:52am MDT
Clear
Clear
 Wind from WSW
Wind: WSW 6 mph , 9 km/h
Temperature: 64°F , 18°C
Dew Point: 28°F , -2°C
Humidity: 26%
Barometer: 29.91 inHg , 1012.9 hPa
Clouds: Clear
Visibility: 10 miles , 16 km
2018/09/24 06:52 KBJC 240652Z AUTO 25005KT 10SM CLR 18/M02 A2991 RMK AO2
KEIK - Erie Muni, Colorado, USA
Distance from station: N 5mi, 9km
Updated: Mon, 24-Sep-2018 12:53am MDT
Clear
Clear
 Wind from SSW
Wind: SSW 3 mph , 6 km/h
Temperature: 59°F , 15°C
Dew Point: 32°F , 0°C
Humidity: 36%
Barometer: 29.91 inHg , 1012.9 hPa
Clouds: Clear
Visibility: 10 miles , 16 km
2018/09/24 06:53 KEIK 240653Z AUTO 21003KT 10SM CLR 15/00 A2991 RMK AO2 T01500000
 
KBDU - Boulder Muni, Colorado, USA
Distance from station: NW 11mi, 17km
Updated: Mon, 24-Sep-2018 12:54am MDT
Clear
Clear
 Wind from SE
Wind: SE 6 mph , 9 km/h
Temperature: 66°F , 19°C
Dew Point: 32°F , 0°C
Humidity: 28%
Barometer: 29.87 inHg , 1011.5 hPa
Clouds: Clear
Visibility: 10 miles , 16 km
2018/09/24 06:54 KBDU 240654Z AUTO 14005KT 10SM CLR 19/00 A2987 RMK AO2
KLMO - Longmont/Vbrand, Colorado, USA
Distance from station: NNW 16mi, 27km
Updated: Mon, 24-Sep-2018 12:55am MDT
Clear
Clear
 Wind from NW
Wind: NW 3 mph , 6 km/h
Temperature: 68°F , 20°C
Dew Point: 32°F , 0°C
Humidity: 26%
Barometer: 29.88 inHg , 1011.9 hPa
Clouds: Clear
Visibility: 10 miles , 16 km
2018/09/24 06:55 KLMO 240655Z AUTO 32003KT 10SM CLR 20/00 A2988 RMK AO2 T02000001
 
KBKF - Buckley Angb/Den, Colorado, USA
Distance from station: SE 23mi, 37km
Updated: Mon, 24-Sep-2018 12:58am MDT
Partly cloudy
Partly cloudy
 Wind from S
Wind: S 9 mph , 15 km/h
Temperature: 59°F , 15°C
Dew Point: 32°F , 0°C
Humidity: 36%
Barometer: 29.91 inHg , 1012.9 hPa
Clouds: Partly cloudy
Visibility: 10 miles , 16 km
Cloud details: Partly cloudy 14000 ft
2018/09/24 06:58 KBKF 240658Z 19008KT 10SM SCT140 15/00 A2991 RMK AO2A SLP050 T01541004 403030129
KDEN - Denver (dia), Colorado, USA
Distance from station: ESE 23mi, 37km
Updated: Mon, 24-Sep-2018 12:53am MDT
Partly cloudy
Partly cloudy
 Wind from WSW
Wind: WSW 12 mph , 19 km/h
Temperature: 64°F , 18°C
Dew Point: 30°F , -1°C
Humidity: 28%
Barometer: 29.88 inHg , 1011.9 hPa
Clouds: Partly cloudy
Visibility: 10 miles , 16 km
Cloud details: Partly cloudy 15000 ft
2018/09/24 06:53 KDEN 240653Z 24010KT 10SM SCT150 18/M01 A2988 RMK AO2 SLP030 T01831011 403110133
 
KAPA - Denver/Arapahoe, Colorado, USA
Distance from station: SSE 28mi, 46km
Updated: Mon, 24-Sep-2018 12:53am MDT
Partly cloudy
Partly cloudy
 Wind from SSW
Wind: SSW 6 mph , 9 km/h
Temperature: 64°F , 18°C
Dew Point: 28°F , -2°C
Humidity: 26%
Barometer: 29.93 inHg , 1013.5 hPa
Clouds: Partly cloudy
Visibility: 10 miles , 16 km
Cloud details: Few Clouds 12000 ft
Partly cloudy 22000 ft
2018/09/24 06:53 KAPA 240653Z 20005KT 10SM FEW120 SCT220 18/M02 A2993 RMK AO2 SLP056 T01781022 403000111
KFTG - Denver F. Range, Colorado, USA
Distance from station: ESE 30mi, 48km
Updated: Mon, 24-Sep-2018 12:48am MDT
Clear
Clear
 Wind from SW
Wind: SW 10 mph , 17 km/h
Temperature: 66°F , 19°C
Dew Point: 32°F , 0°C
Humidity: 28%
Barometer: 29.91 inHg , 1012.9 hPa
Clouds: Clear
Visibility: 10 miles , 16 km
2018/09/24 06:48 KFTG 240648Z AUTO 23009KT 10SM CLR 19/00 A2991 RMK AO2 T01871002
 
KFNL - Ft Collins/Lovel, Colorado, USA
Distance from station: N 35mi, 57km
Updated: Mon, 24-Sep-2018 12:56am MDT
Clear
Clear
 Wind from WSW
Wind: WSW 7 mph , 11 km/h
Temperature: 61°F , 16°C
Dew Point: 45°F , 7°C
Humidity: 55%
Barometer: 29.87 inHg , 1011.5 hPa
Clouds: Clear
Visibility: 10 miles , 16 km
2018/09/24 06:56 KFNL 240656Z AUTO 24006KT 10SM CLR 16/07 A2987 RMK AO2 SLP046 T01610067 403220094 PNO $
K0CO - Berthoud Pass, Colorado, USA
Distance from station: WSW 38mi, 61km
Updated: Mon, 24-Sep-2018 1:06am MDT
Clear
Clear
 Wind from W
Wind: W 10 mph , 17 km/h, Gust: 20 mph , 31 km/h
Temperature: 37°F , 3°C
Wind Chill: 30°F , -1°C
Dew Point: 23°F , -5°C
Humidity: 56%
Barometer: 30.38 inHg , 1028.8 hPa
Clouds: Clear
Visibility: 10 miles , 16 km
2018/09/24 07:06 K0CO 240706Z AUTO 26009G17KT 10SM CLR 03/M05 A3038 RMK AO2
 
KGXY - Greeley/Weld, Colorado, USA
Distance from station: NE 41mi, 66km
Updated: Sun, 23-Sep-2018 11:56pm MDT
NOT Current
Clear
Clear
 Wind from calm
Wind: Calm
Temperature: 61°F , 16°C
Dew Point: 37°F , 3°C
Humidity: 42%
Barometer: 29.85 inHg , 1010.8 hPa
Clouds: Clear
Visibility: 10 miles , 16 km
2018/09/24 05:56 KGXY 240556Z 00000KT 10SM CLR 16/03 A2985 RMK AO2 SLP066 T01560028 10267 20156 58004